Terminal Aerodrome Forecast
Issued by NWS Goodland, KS

Home | Current Version | Previous Version | Text Only | Print | Product List | Glossary Off
Versions: 1 2 3 4 5 6 7 8 9 10 11 12 13 14 15

000
FTUS43 KGLD 040527
TAFGLD
TAF
KGLD 040527Z 0406/0506 VRB03KT P6SM SCT120 WS002/02022KT
     FM040900 28006KT P6SM SCT100
     FM041600 25010KT P6SM FEW150
     FM041900 19015KT P6SM SCT150=

USA.gov is the U.S. government's official web portal to all federal, state and local government web resources and services.